sensor_id;sensor_type;location;lat;lon;timestamp;pressure;altitude;pressure_sealevel;temperature;humidity
43878;BME280;29815;48.184;11.268;2023-05-16T00:02:05;95193.38;;;8.61;100.00
43878;BME280;29815;48.184;11.268;2023-05-16T00:04:36;95190.44;;;8.63;100.00
43878;BME280;29815;48.184;11.268;2023-05-16T00:07:06;95177.81;;;8.58;100.00
43878;BME280;29815;48.184;11.268;2023-05-16T00:09:35;95177.53;;;8.60;100.00
43878;BME280;29815;48.184;11.268;2023-05-16T00:12:07;95172.97;;;8.60;100.00
43878;BME280;29815;48.184;11.268;2023-05-16T00:14:36;95171.09;;;8.56;100.00
43878;BME280;29815;48.184;11.268;2023-05-16T00:17:06;95175.66;;;8.55;100.00
43878;BME280;29815;48.184;11.268;2023-05-16T00:19:39;95170.84;;;8.47;100.00
43878;BME280;29815;48.184;11.268;2023-05-16T00:22:09;95166.81;;;8.44;100.00
43878;BME280;29815;48.184;11.268;2023-05-16T00:24:39;95173.75;;;8.40;100.00
43878;BME280;29815;48.184;11.268;2023-05-16T00:27:10;95178.31;;;8.40;100.00
43878;BME280;29815;48.184;11.268;2023-05-16T00:29:39;95178.59;;;8.38;100.00
43878;BME280;29815;48.184;11.268;2023-05-16T00:32:08;95188.25;;;8.39;100.00
43878;BME280;29815;48.184;11.268;2023-05-16T00:34:38;95182.06;;;8.39;100.00
43878;BME280;29815;48.184;11.268;2023-05-16T00:37:08;95183.41;;;8.36;100.00
43878;BME280;29815;48.184;11.268;2023-05-16T00:39:37;95176.16;;;8.37;100.00
43878;BME280;29815;48.184;11.268;2023-05-16T00:42:09;95180.97;;;8.35;100.00
43878;BME280;29815;48.184;11.268;2023-05-16T00:44:38;95175.31;;;8.31;100.00
43878;BME280;29815;48.184;11.268;2023-05-16T00:47:09;95173.41;;;8.27;100.00
43878;BME280;29815;48.184;11.268;2023-05-16T00:49:38;95176.34;;;8.25;100.00
43878;BME280;29815;48.184;11.268;2023-05-16T00:52:08;95178.78;;;8.27;100.00
43878;BME280;29815;48.184;11.268;2023-05-16T00:54:40;95173.69;;;8.25;100.00
43878;BME280;29815;48.184;11.268;2023-05-16T00:57:11;95165.91;;;8.24;100.00
43878;BME280;29815;48.184;11.268;2023-05-16T00:59:40;95154.09;;;8.25;100.00
43878;BME280;29815;48.184;11.268;2023-05-16T01:02:11;95163.75;;;8.21;100.00
43878;BME280;29815;48.184;11.268;2023-05-16T01:04:42;95167.25;;;8.16;100.00
43878;BME280;29815;48.184;11.268;2023-05-16T01:07:11;95167.50;;;8.14;100.00
43878;BME280;29815;48.184;11.268;2023-05-16T01:09:41;95165.38;;;8.17;100.00
43878;BME280;29815;48.184;11.268;2023-05-16T01:12:17;95157.59;;;8.15;100.00
43878;BME280;29815;48.184;11.268;2023-05-16T01:15:01;95162.97;;;8.20;100.00
43878;BME280;29815;48.184;11.268;2023-05-16T01:17:48;95162.16;;;8.20;100.00
43878;BME280;29815;48.184;11.268;2023-05-16T01:20:33;95164.84;;;8.20;100.00
43878;BME280;29815;48.184;11.268;2023-05-16T01:23:29;95159.75;;;8.18;100.00
43878;BME280;29815;48.184;11.268;2023-05-16T01:26:14;95160.81;;;8.17;100.00
43878;BME280;29815;48.184;11.268;2023-05-16T01:28:45;95158.66;;;8.14;100.00
43878;BME280;29815;48.184;11.268;2023-05-16T01:31:16;95157.81;;;8.08;100.00
43878;BME280;29815;48.184;11.268;2023-05-16T01:33:46;95165.59;;;8.05;100.00
43878;BME280;29815;48.184;11.268;2023-05-16T01:36:24;95158.63;;;8.04;100.00
43878;BME280;29815;48.184;11.268;2023-05-16T01:39:02;95153.25;;;8.04;100.00
43878;BME280;29815;48.184;11.268;2023-05-16T01:41:51;95149.75;;;8.03;100.00
43878;BME280;29815;48.184;11.268;2023-05-16T01:44:28;95153.78;;;8.06;100.00
43878;BME280;29815;48.184;11.268;2023-05-16T01:47:04;95149.75;;;8.03;100.00
43878;BME280;29815;48.184;11.268;2023-05-16T01:49:44;95143.88;;;8.06;100.00
43878;BME280;29815;48.184;11.268;2023-05-16T01:52:23;95132.34;;;8.06;100.00
43878;BME280;29815;48.184;11.268;2023-05-16T01:54:57;95143.59;;;8.03;100.00
43878;BME280;29815;48.184;11.268;2023-05-16T01:57:29;95137.97;;;7.99;100.00
43878;BME280;29815;48.184;11.268;2023-05-16T02:00:00;95138.47;;;7.96;100.00
43878;BME280;29815;48.184;11.268;2023-05-16T02:02:41;95143.03;;;7.91;100.00
43878;BME280;29815;48.184;11.268;2023-05-16T02:05:10;95134.47;;;7.89;100.00
43878;BME280;29815;48.184;11.268;2023-05-16T02:07:40;95144.91;;;7.90;100.00
43878;BME280;29815;48.184;11.268;2023-05-16T02:10:11;95141.69;;;7.88;100.00
43878;BME280;29815;48.184;11.268;2023-05-16T02:12:43;95151.34;;;7.89;100.00
43878;BME280;29815;48.184;11.268;2023-05-16T02:15:12;95141.69;;;7.88;100.00
43878;BME280;29815;48.184;11.268;2023-05-16T02:17:42;95139.56;;;7.90;100.00
43878;BME280;29815;48.184;11.268;2023-05-16T02:20:12;95142.22;;;7.90;100.00
43878;BME280;29815;48.184;11.268;2023-05-16T02:22:42;95142.78;;;7.92;100.00
43878;BME280;29815;48.184;11.268;2023-05-16T02:25:14;95144.66;;;7.92;100.00
43878;BME280;29815;48.184;11.268;2023-05-16T02:27:45;95137.91;;;7.84;100.00
43878;BME280;29815;48.184;11.268;2023-05-16T02:30:16;95149.41;;;7.79;100.00
43878;BME280;29815;48.184;11.268;2023-05-16T02:32:46;95142.72;;;7.77;100.00
43878;BME280;29815;48.184;11.268;2023-05-16T02:35:17;95141.88;;;7.71;100.00
43878;BME280;29815;48.184;11.268;2023-05-16T02:37:47;95150.97;;;7.65;100.00
43878;BME280;29815;48.184;11.268;2023-05-16T02:40:17;95142.91;;;7.60;100.00
43878;BME280;29815;48.184;11.268;2023-05-16T02:42:48;95147.72;;;7.58;100.00
43878;BME280;29815;48.184;11.268;2023-05-16T02:45:18;95152.53;;;7.56;100.00
43878;BME280;29815;48.184;11.268;2023-05-16T02:47:47;95152.28;;;7.58;100.00
43878;BME280;29815;48.184;11.268;2023-05-16T02:50:19;95160.31;;;7.58;100.00
43878;BME280;29815;48.184;11.268;2023-05-16T02:52:48;95149.59;;;7.58;100.00
43878;BME280;29815;48.184;11.268;2023-05-16T02:55:18;95150.91;;;7.55;100.00
43878;BME280;29815;48.184;11.268;2023-05-16T02:57:51;95147.44;;;7.55;100.00
43878;BME280;29815;48.184;11.268;2023-05-16T03:00:21;95150.13;;;7.55;100.00
43878;BME280;29815;48.184;11.268;2023-05-16T03:02:50;95148.78;;;7.57;100.00
43878;BME280;29815;48.184;11.268;2023-05-16T03:05:20;95157.13;;;7.66;100.00
43878;BME280;29815;48.184;11.268;2023-05-16T03:07:51;95150.44;;;7.63;100.00
43878;BME280;29815;48.184;11.268;2023-05-16T03:10:20;95152.56;;;7.61;100.00
43878;BME280;29815;48.184;11.268;2023-05-16T03:12:51;95153.38;;;7.62;100.00
43878;BME280;29815;48.184;11.268;2023-05-16T03:15:22;95151.22;;;7.59;100.00
43878;BME280;29815;48.184;11.268;2023-05-16T03:17:52;95155.22;;;7.56;100.00
43878;BME280;29815;48.184;11.268;2023-05-16T03:20:23;95148.25;;;7.55;100.00
43878;BME280;29815;48.184;11.268;2023-05-16T03:22:53;95152.25;;;7.53;100.00
43878;BME280;29815;48.184;11.268;2023-05-16T03:25:23;95143.66;;;7.51;100.00
43878;BME280;29815;48.184;11.268;2023-05-16T03:27:55;95146.59;;;7.49;100.00
43878;BME280;29815;48.184;11.268;2023-05-16T03:30:25;95142.03;;;7.44;100.00
43878;BME280;29815;48.184;11.268;2023-05-16T03:32:54;95150.31;;;7.43;100.00
43878;BME280;29815;48.184;11.268;2023-05-16T03:35:24;95138.53;;;7.44;100.00
43878;BME280;29815;48.184;11.268;2023-05-16T03:37:54;95150.31;;;7.43;100.00
43878;BME280;29815;48.184;11.268;2023-05-16T03:40:24;95152.16;;;7.37;100.00
43878;BME280;29815;48.184;11.268;2023-05-16T03:42:55;95147.34;;;7.34;100.00
43878;BME280;29815;48.184;11.268;2023-05-16T03:45:25;95152.13;;;7.32;100.00
43878;BME280;29815;48.184;11.268;2023-05-16T03:47:55;95140.88;;;7.30;100.00
43878;BME280;29815;48.184;11.268;2023-05-16T03:50:25;95149.44;;;7.27;100.00
43878;BME280;29815;48.184;11.268;2023-05-16T03:52:54;95154.78;;;7.27;100.00
43878;BME280;29815;48.184;11.268;2023-05-16T03:55:24;95157.19;;;7.29;100.00
43878;BME280;29815;48.184;11.268;2023-05-16T03:57:55;95156.13;;;7.30;100.00
43878;BME280;29815;48.184;11.268;2023-05-16T04:00:25;95154.25;;;7.30;100.00
43878;BME280;29815;48.184;11.268;2023-05-16T04:02:55;95150.28;;;7.33;100.00
43878;BME280;29815;48.184;11.268;2023-05-16T04:05:24;95152.97;;;7.38;100.00
43878;BME280;29815;48.184;11.268;2023-05-16T04:07:54;95152.16;;;7.37;100.00
43878;BME280;29815;48.184;11.268;2023-05-16T04:10:24;95154.03;;;7.37;100.00
43878;BME280;29815;48.184;11.268;2023-05-16T04:12:54;95149.75;;;7.41;100.00
43878;BME280;29815;48.184;11.268;2023-05-16T04:15:24;95155.91;;;7.41;100.00
43878;BME280;29815;48.184;11.268;2023-05-16T04:17:54;95148.69;;;7.42;100.00
43878;BME280;29815;48.184;11.268;2023-05-16T04:20:23;95151.91;;;7.44;100.00
43878;BME280;29815;48.184;11.268;2023-05-16T04:22:53;95146.31;;;7.45;100.00
43878;BME280;29815;48.184;11.268;2023-05-16T04:25:22;95146.34;;;7.51;100.00
43878;BME280;29815;48.184;11.268;2023-05-16T04:27:52;95149.81;;;7.51;100.00
43878;BME280;29815;48.184;11.268;2023-05-16T04:30:24;95147.44;;;7.55;100.00
43878;BME280;29815;48.184;11.268;2023-05-16T04:32:54;95147.97;;;7.57;100.00
43878;BME280;29815;48.184;11.268;2023-05-16T04:35:24;95146.44;;;7.66;100.00
43878;BME280;29815;48.184;11.268;2023-05-16T04:37:55;95140.25;;;7.70;100.00
43878;BME280;29815;48.184;11.268;2023-05-16T04:40:25;95141.34;;;7.74;100.00
43878;BME280;29815;48.184;11.268;2023-05-16T04:42:56;95148.06;;;7.77;100.00
43878;BME280;29815;48.184;11.268;2023-05-16T04:45:25;95151.84;;;7.81;100.00
43878;BME280;29815;48.184;11.268;2023-05-16T04:47:55;95140.59;;;7.84;100.00
43878;BME280;29815;48.184;11.268;2023-05-16T04:50:25;95144.38;;;7.88;100.00
43878;BME280;29815;48.184;11.268;2023-05-16T04:52:55;95146.78;;;7.95;100.00
43878;BME280;29815;48.184;11.268;2023-05-16T04:55:24;95148.41;;;8.01;100.00
43878;BME280;29815;48.184;11.268;2023-05-16T04:57:56;95153.53;;;8.07;100.00
43878;BME280;29815;48.184;11.268;2023-05-16T05:00:25;95151.13;;;8.11;100.00
43878;BME280;29815;48.184;11.268;2023-05-16T05:02:56;95152.50;;;8.13;100.00
43878;BME280;29815;48.184;11.268;2023-05-16T05:05:25;95150.34;;;8.15;100.00
43878;BME280;29815;48.184;11.268;2023-05-16T05:07:57;95149.56;;;8.20;100.00
43878;BME280;29815;48.184;11.268;2023-05-16T05:10:27;95156.50;;;8.21;100.00
43878;BME280;29815;48.184;11.268;2023-05-16T05:12:59;95154.91;;;8.25;100.00
43878;BME280;29815;48.184;11.268;2023-05-16T05:15:30;95153.31;;;8.29;100.00
43878;BME280;29815;48.184;11.268;2023-05-16T05:17:59;95156.59;;;8.36;100.00
43878;BME280;29815;48.184;11.268;2023-05-16T05:20:29;95154.44;;;8.38;100.00
43878;BME280;29815;48.184;11.268;2023-05-16T05:22:59;95159.03;;;8.43;100.00
43878;BME280;29815;48.184;11.268;2023-05-16T05:25:28;95161.41;;;8.49;100.00
43878;BME280;29815;48.184;11.268;2023-05-16T05:27:59;95161.44;;;8.55;100.00
43878;BME280;29815;48.184;11.268;2023-05-16T05:30:29;95168.16;;;8.62;100.00
43878;BME280;29815;48.184;11.268;2023-05-16T05:32:58;95172.19;;;8.70;100.00
43878;BME280;29815;48.184;11.268;2023-05-16T05:35:28;95174.88;;;8.75;100.00
43878;BME280;29815;48.184;11.268;2023-05-16T05:37:57;95183.72;;;8.80;100.00
43878;BME280;29815;48.184;11.268;2023-05-16T05:40:27;95188.28;;;8.85;100.00
43878;BME280;29815;48.184;11.268;2023-05-16T05:42:58;95179.44;;;8.95;100.00
43878;BME280;29815;48.184;11.268;2023-05-16T05:45:28;95176.50;;;9.01;100.00
43878;BME280;29815;48.184;11.268;2023-05-16T05:47:57;95176.22;;;9.13;100.00
43878;BME280;29815;48.184;11.268;2023-05-16T05:50:27;95165.22;;;9.20;100.00
43878;BME280;29815;48.184;11.268;2023-05-16T05:52:56;95160.66;;;9.25;100.00
43878;BME280;29815;48.184;11.268;2023-05-16T05:55:26;95159.53;;;9.31;100.00
43878;BME280;29815;48.184;11.268;2023-05-16T05:57:56;95160.34;;;9.37;100.00
43878;BME280;29815;48.184;11.268;2023-05-16T06:00:27;95156.56;;;9.43;100.00
43878;BME280;29815;48.184;11.268;2023-05-16T06:02:57;95156.56;;;9.48;100.00
43878;BME280;29815;48.184;11.268;2023-05-16T06:05:27;95150.66;;;9.56;100.00
43878;BME280;29815;48.184;11.268;2023-05-16T06:07:57;95146.88;;;9.57;100.00
43878;BME280;29815;48.184;11.268;2023-05-16T06:10:26;95150.34;;;9.58;100.00
43878;BME280;29815;48.184;11.268;2023-05-16T06:12:56;95142.81;;;9.65;100.00
43878;BME280;29815;48.184;11.268;2023-05-16T06:15:27;95148.72;;;9.67;100.00
43878;BME280;29815;48.184;11.268;2023-05-16T06:17:56;95149.53;;;9.67;100.00
43878;BME280;29815;48.184;11.268;2023-05-16T06:20:26;95148.44;;;9.73;100.00
43878;BME280;29815;48.184;11.268;2023-05-16T06:22:56;95144.91;;;9.83;100.00
43878;BME280;29815;48.184;11.268;2023-05-16T06:25:26;95144.84;;;9.93;100.00
43878;BME280;29815;48.184;11.268;2023-05-16T06:27:56;95149.66;;;10.06;100.00
43878;BME280;29815;48.184;11.268;2023-05-16T06:30:27;95153.38;;;10.21;100.00
43878;BME280;29815;48.184;11.268;2023-05-16T06:32:56;95146.84;;;10.32;100.00
43878;BME280;29815;48.184;11.268;2023-05-16T06:35:26;95150.06;;;10.39;100.00
43878;BME280;29815;48.184;11.268;2023-05-16T06:37:56;95148.91;;;10.45;100.00
43878;BME280;29815;48.184;11.268;2023-05-16T06:40:25;95140.78;;;10.55;100.00
43878;BME280;29815;48.184;11.268;2023-05-16T06:42:55;95136.47;;;10.59;100.00
43878;BME280;29815;48.184;11.268;2023-05-16T06:45:26;95145.59;;;10.63;100.00
43878;BME280;29815;48.184;11.268;2023-05-16T06:47:56;95140.22;;;10.63;100.00
43878;BME280;29815;48.184;11.268;2023-05-16T06:50:26;95144.44;;;10.69;100.00
43878;BME280;29815;48.184;11.268;2023-05-16T06:52:56;95145.50;;;10.73;100.00
43878;BME280;29815;48.184;11.268;2023-05-16T06:55:25;95147.09;;;10.74;100.00
43878;BME280;29815;48.184;11.268;2023-05-16T06:57:55;95146.56;;;10.77;100.00
43878;BME280;29815;48.184;11.268;2023-05-16T07:00:26;95140.88;;;10.79;100.00
43878;BME280;29815;48.184;11.268;2023-05-16T07:02:56;95145.72;;;10.82;100.00
43878;BME280;29815;48.184;11.268;2023-05-16T07:05:26;95143.03;;;10.82;100.00
43878;BME280;29815;48.184;11.268;2023-05-16T07:07:56;95139.53;;;10.81;100.00
43878;BME280;29815;48.184;11.268;2023-05-16T07:10:26;95144.34;;;10.84;100.00
43878;BME280;29815;48.184;11.268;2023-05-16T07:13:02;95148.41;;;10.82;100.00
43878;BME280;29815;48.184;11.268;2023-05-16T07:15:33;95146.00;;;10.80;100.00
43878;BME280;29815;48.184;11.268;2023-05-16T07:18:03;95155.69;;;10.81;100.00
43878;BME280;29815;48.184;11.268;2023-05-16T07:20:32;95145.16;;;10.85;100.00
43878;BME280;29815;48.184;11.268;2023-05-16T07:23:02;95154.03;;;10.85;100.00
43878;BME280;29815;48.184;11.268;2023-05-16T07:25:32;95153.22;;;10.85;100.00
43878;BME280;29815;48.184;11.268;2023-05-16T07:28:01;95151.06;;;10.87;100.00
43878;BME280;29815;48.184;11.268;2023-05-16T07:30:32;95150.75;;;10.94;100.00
43878;BME280;29815;48.184;11.268;2023-05-16T07:33:02;95152.34;;;10.95;100.00
43878;BME280;29815;48.184;11.268;2023-05-16T07:35:32;95154.28;;;10.89;100.00
43878;BME280;29815;48.184;11.268;2023-05-16T07:38:01;95156.97;;;10.89;100.00
43878;BME280;29815;48.184;11.268;2023-05-16T07:40:31;95164.22;;;10.94;100.00
43878;BME280;29815;48.184;11.268;2023-05-16T07:43:01;95155.03;;;10.95;100.00
43878;BME280;29815;48.184;11.268;2023-05-16T07:45:30;95155.88;;;10.90;100.00
43878;BME280;29815;48.184;11.268;2023-05-16T07:48:01;95163.91;;;10.95;100.00
43878;BME280;29815;48.184;11.268;2023-05-16T07:50:32;95177.09;;;10.97;100.00
43878;BME280;29815;48.184;11.268;2023-05-16T07:53:01;95173.31;;;10.98;100.00
43878;BME280;29815;48.184;11.268;2023-05-16T07:55:31;95178.13;;;11.01;100.00
43878;BME280;29815;48.184;11.268;2023-05-16T07:58:01;95181.63;;;11.01;100.00
43878;BME280;29815;48.184;11.268;2023-05-16T08:00:31;95177.84;;;11.02;100.00
43878;BME280;29815;48.184;11.268;2023-05-16T08:03:02;95186.47;;;11.04;100.00
43878;BME280;29815;48.184;11.268;2023-05-16T08:05:32;95190.00;;;11.00;100.00
43878;BME280;29815;48.184;11.268;2023-05-16T08:08:02;95183.56;;;10.96;100.00
43878;BME280;29815;48.184;11.268;2023-05-16T08:10:32;95180.88;;;10.96;100.00
43878;BME280;29815;48.184;11.268;2023-05-16T08:13:01;95180.94;;;10.91;100.00
43878;BME280;29815;48.184;11.268;2023-05-16T08:15:31;95181.22;;;10.89;100.00
43878;BME280;29815;48.184;11.268;2023-05-16T08:18:02;95182.28;;;10.88;100.00
43878;BME280;29815;48.184;11.268;2023-05-16T08:20:34;95181.25;;;10.84;100.00
43878;BME280;29815;48.184;11.268;2023-05-16T08:23:03;95183.66;;;10.85;100.00
43878;BME280;29815;48.184;11.268;2023-05-16T08:25:37;95181.78;;;10.81;100.00
43878;BME280;29815;48.184;11.268;2023-05-16T08:28:16;95181.50;;;10.82;100.00
43878;BME280;29815;48.184;11.268;2023-05-16T08:30:46;95179.91;;;10.81;100.00
43878;BME280;29815;48.184;11.268;2023-05-16T08:33:17;95183.66;;;10.85;100.00
43878;BME280;29815;48.184;11.268;2023-05-16T08:35:47;95188.25;;;10.80;100.00
43878;BME280;29815;48.184;11.268;2023-05-16T08:38:19;95186.94;;;10.77;100.00
43878;BME280;29815;48.184;11.268;2023-05-16T08:40:49;95187.19;;;10.76;100.00
43878;BME280;29815;48.184;11.268;2023-05-16T08:43:19;95189.09;;;10.75;100.00
43878;BME280;29815;48.184;11.268;2023-05-16T08:45:49;95186.16;;;10.72;100.00
43878;BME280;29815;48.184;11.268;2023-05-16T08:48:22;95190.44;;;10.73;100.00
43878;BME280;29815;48.184;11.268;2023-05-16T08:50:52;95188.31;;;10.70;100.00
43878;BME280;29815;48.184;11.268;2023-05-16T08:53:37;95188.03;;;10.71;100.00
43878;BME280;29815;48.184;11.268;2023-05-16T08:56:11;95185.88;;;10.73;100.00
43878;BME280;29815;48.184;11.268;2023-05-16T08:58:41;95200.66;;;10.76;100.00
43878;BME280;29815;48.184;11.268;2023-05-16T09:01:11;95196.34;;;10.80;100.00
43878;BME280;29815;48.184;11.268;2023-05-16T09:03:42;95203.56;;;10.84;100.00
43878;BME280;29815;48.184;11.268;2023-05-16T09:06:13;95197.88;;;10.91;100.00
43878;BME280;29815;48.184;11.268;2023-05-16T09:08:43;95201.31;;;10.97;100.00
43878;BME280;29815;48.184;11.268;2023-05-16T09:11:12;95196.44;;;11.04;100.00
43878;BME280;29815;48.184;11.268;2023-05-16T09:13:42;95192.63;;;11.10;100.00
43878;BME280;29815;48.184;11.268;2023-05-16T09:16:13;95181.28;;;11.13;100.00
43878;BME280;29815;48.184;11.268;2023-05-16T09:18:46;95179.63;;;11.17;100.00
43878;BME280;29815;48.184;11.268;2023-05-16T09:21:26;95175.50;;;11.25;100.00
43878;BME280;29815;48.184;11.268;2023-05-16T09:24:02;95176.84;;;11.27;100.00
43878;BME280;29815;48.184;11.268;2023-05-16T09:26:33;95179.44;;;11.37;100.00
43878;BME280;29815;48.184;11.268;2023-05-16T09:29:10;95170.97;;;11.49;100.00
43878;BME280;29815;48.184;11.268;2023-05-16T09:31:40;95175.28;;;11.50;100.00
43878;BME280;29815;48.184;11.268;2023-05-16T09:34:11;95177.16;;;11.49;100.00
43878;BME280;29815;48.184;11.268;2023-05-16T09:36:41;95176.06;;;11.50;100.00
43878;BME280;29815;48.184;11.268;2023-05-16T09:39:14;95179.66;;;11.46;100.00
43878;BME280;29815;48.184;11.268;2023-05-16T09:41:44;95176.16;;;11.45;100.00
43878;BME280;29815;48.184;11.268;2023-05-16T09:44:13;95180.75;;;11.45;100.00
43878;BME280;29815;48.184;11.268;2023-05-16T09:46:46;95177.75;;;11.46;100.00
43878;BME280;29815;48.184;11.268;2023-05-16T09:49:17;95178.84;;;11.45;100.00
43878;BME280;29815;48.184;11.268;2023-05-16T09:51:47;95184.25;;;11.45;100.00
43878;BME280;29815;48.184;11.268;2023-05-16T09:54:29;95178.88;;;11.40;100.00
43878;BME280;29815;48.184;11.268;2023-05-16T09:57:00;95188.28;;;11.43;100.00
43878;BME280;29815;48.184;11.268;2023-05-16T09:59:31;95175.38;;;11.40;100.00
43878;BME280;29815;48.184;11.268;2023-05-16T10:02:06;95184.56;;;11.39;100.00
43878;BME280;29815;48.184;11.268;2023-05-16T10:04:37;95191.56;;;11.40;100.00
43878;BME280;29815;48.184;11.268;2023-05-16T10:07:06;95197.75;;;11.40;100.00
43878;BME280;29815;48.184;11.268;2023-05-16T10:09:38;95188.56;;;11.41;100.00
43878;BME280;29815;48.184;11.268;2023-05-16T10:12:10;95199.34;;;11.41;100.00
43878;BME280;29815;48.184;11.268;2023-05-16T10:14:41;95195.63;;;11.37;100.00
43878;BME280;29815;48.184;11.268;2023-05-16T10:17:14;95199.69;;;11.35;100.00
43878;BME280;29815;48.184;11.268;2023-05-16T10:19:46;95191.06;;;11.33;100.00
43878;BME280;29815;48.184;11.268;2023-05-16T10:22:17;95192.97;;;11.32;100.00
43878;BME280;29815;48.184;11.268;2023-05-16T10:24:57;95190.28;;;11.32;100.00
43878;BME280;29815;48.184;11.268;2023-05-16T10:27:38;95194.91;;;11.27;100.00
43878;BME280;29815;48.184;11.268;2023-05-16T10:30:10;95187.09;;;11.25;100.00
43878;BME280;29815;48.184;11.268;2023-05-16T10:32:40;95186.06;;;11.21;100.00
43878;BME280;29815;48.184;11.268;2023-05-16T10:35:11;95188.53;;;11.17;100.00
43878;BME280;29815;48.184;11.268;2023-05-16T10:37:41;95189.38;;;11.13;100.00
43878;BME280;29815;48.184;11.268;2023-05-16T10:40:12;95195.59;;;11.08;100.00
43878;BME280;29815;48.184;11.268;2023-05-16T10:42:53;95198.28;;;11.08;100.00
43878;BME280;29815;48.184;11.268;2023-05-16T10:45:24;95202.06;;;11.07;100.00
43878;BME280;29815;48.184;11.268;2023-05-16T10:47:55;95202.84;;;11.13;100.00
43878;BME280;29815;48.184;11.268;2023-05-16T10:50:36;95210.09;;;11.12;100.00
43878;BME280;29815;48.184;11.268;2023-05-16T10:53:19;95210.34;;;11.16;100.00
43878;BME280;29815;48.184;11.268;2023-05-16T10:56:05;95204.97;;;11.16;100.00
43878;BME280;29815;48.184;11.268;2023-05-16T10:58:42;95213.28;;;11.19;100.00
43878;BME280;29815;48.184;11.268;2023-05-16T11:01:20;95207.03;;;11.24;100.00
43878;BME280;29815;48.184;11.268;2023-05-16T11:04:15;95208.59;;;11.30;100.00
43878;BME280;29815;48.184;11.268;2023-05-16T11:06:50;95207.56;;;11.26;100.00
43878;BME280;29815;48.184;11.268;2023-05-16T11:09:24;95208.09;;;11.28;100.00
43878;BME280;29815;48.184;11.268;2023-05-16T11:12:00;95207.53;;;11.31;100.00
43878;BME280;29815;48.184;11.268;2023-05-16T11:14:37;95203.22;;;11.30;100.00
43878;BME280;29815;48.184;11.268;2023-05-16T11:17:10;95204.25;;;11.34;100.00
43878;BME280;29815;48.184;11.268;2023-05-16T11:19:43;95201.00;;;11.37;100.00
43878;BME280;29815;48.184;11.268;2023-05-16T11:22:27;95193.41;;;11.44;100.00
43878;BME280;29815;48.184;11.268;2023-05-16T11:24:59;95192.53;;;11.49;100.00
43878;BME280;29815;48.184;11.268;2023-05-16T11:27:31;95189.56;;;11.50;100.00
43878;BME280;29815;48.184;11.268;2023-05-16T11:30:11;95186.28;;;11.53;100.00
43878;BME280;29815;48.184;11.268;2023-05-16T11:32:44;95188.38;;;11.62;100.00
43878;BME280;29815;48.184;11.268;2023-05-16T11:35:16;95192.34;;;11.69;100.00
43878;BME280;29815;48.184;11.268;2023-05-16T11:37:47;95186.69;;;11.71;100.00
43878;BME280;29815;48.184;11.268;2023-05-16T11:40:17;95181.75;;;11.78;100.00
43878;BME280;29815;48.184;11.268;2023-05-16T11:42:47;95181.41;;;11.84;100.00
43878;BME280;29815;48.184;11.268;2023-05-16T11:45:19;95184.03;;;11.95;100.00
43878;BME280;29815;48.184;11.268;2023-05-16T11:47:51;95183.22;;;11.94;100.00
43878;BME280;29815;48.184;11.268;2023-05-16T11:50:22;95184.25;;;11.98;100.00
43878;BME280;29815;48.184;11.268;2023-05-16T11:52:54;95174.50;;;12.02;100.00
43878;BME280;29815;48.184;11.268;2023-05-16T11:55:26;95174.94;;;12.09;100.00
43878;BME280;29815;48.184;11.268;2023-05-16T11:58:00;95168.97;;;12.12;100.00
43878;BME280;29815;48.184;11.268;2023-05-16T12:00:30;95170.56;;;12.13;100.00
43878;BME280;29815;48.184;11.268;2023-05-16T12:03:02;95168.34;;;12.20;100.00
43878;BME280;29815;48.184;11.268;2023-05-16T12:05:33;95171.50;;;12.28;100.00
43878;BME280;29815;48.184;11.268;2023-05-16T12:08:04;95172.28;;;12.28;100.00
43878;BME280;29815;48.184;11.268;2023-05-16T12:10:34;95170.09;;;12.30;100.00
43878;BME280;29815;48.184;11.268;2023-05-16T12:13:04;95171.91;;;12.35;100.00
43878;BME280;29815;48.184;11.268;2023-05-16T12:15:34;95175.28;;;12.45;100.00
43878;BME280;29815;48.184;11.268;2023-05-16T12:18:04;95182.66;;;12.59;100.00
43878;BME280;29815;48.184;11.268;2023-05-16T12:20:34;95185.75;;;12.71;100.00
43878;BME280;29815;48.184;11.268;2023-05-16T12:23:09;95180.19;;;12.81;100.00
43878;BME280;29815;48.184;11.268;2023-05-16T12:25:44;95178.34;;;12.95;100.00
43878;BME280;29815;48.184;11.268;2023-05-16T12:28:16;95182.22;;;13.08;100.00
43878;BME280;29815;48.184;11.268;2023-05-16T12:30:46;95180.38;;;13.22;100.00
43878;BME280;29815;48.184;11.268;2023-05-16T12:33:16;95176.28;;;13.25;100.00
43878;BME280;29815;48.184;11.268;2023-05-16T12:35:45;95171.91;;;13.29;100.00
43878;BME280;29815;48.184;11.268;2023-05-16T12:38:18;95172.50;;;13.26;100.00
43878;BME280;29815;48.184;11.268;2023-05-16T12:40:49;95170.88;;;13.25;100.00
43878;BME280;29815;48.184;11.268;2023-05-16T12:43:20;95166.00;;;13.27;100.00
43878;BME280;29815;48.184;11.268;2023-05-16T12:45:51;95168.41;;;13.28;100.00
43878;BME280;29815;48.184;11.268;2023-05-16T12:48:23;95163.44;;;13.35;100.00
43878;BME280;29815;48.184;11.268;2023-05-16T12:51:11;95158.72;;;13.41;100.00
43878;BME280;29815;48.184;11.268;2023-05-16T12:53:45;95161.22;;;13.37;100.00
43878;BME280;29815;48.184;11.268;2023-05-16T12:56:38;95148.00;;;13.36;100.00
43878;BME280;29815;48.184;11.268;2023-05-16T12:59:08;95154.09;;;13.28;100.00
43878;BME280;29815;48.184;11.268;2023-05-16T13:01:39;95155.78;;;13.24;100.00
43878;BME280;29815;48.184;11.268;2023-05-16T13:04:11;95153.75;;;13.15;100.00
43878;BME280;29815;48.184;11.268;2023-05-16T13:06:45;95159.81;;;13.07;100.00
43878;BME280;29815;48.184;11.268;2023-05-16T13:09:22;95175.72;;;12.90;100.00